Caribe Legend — V2ST — position and weather

sailwx.info

Track history (hours):
 
Tides and Currents Weather Stations Pressure Air Temp Water Temp Dewpoint Dewpoint Depression Visibility Wind Speed Wind Dir Waves Ship Positions

Caribe Legend

Last reported at 2018-Jun-21 13:58 UTC. Time now 2018-Jun-21 14:04 UTC.
Position N 26°46' W 080°03'.

Length 100 m; draft 5.2 m.

Type: Cargo ship. MMSI: 304598000.

Date/timePositionNaut miles runAvg speedWind from/ knotsBaromVisibWave heightAir tempDewpointWater temp
2018-Jun-21 13:58N 26°46' W 080°03'0 0.0
2018-Jun-21 13:28N 26°46' W 080°03'0 0.0
2018-Jun-21 12:58N 26°46' W 080°03'0 0.0
2018-Jun-21 12:28N 26°46' W 080°03'0 0.2
2018-Jun-21 12:00N 26°46' W 080°03'4 7.6
2018-Jun-21 11:30N 26°45' W 079°59'1 0.0
2018-Jun-20 01:44N 26°45' W 080°00'2 9.2
2018-Jun-20 01:28N 26°46' W 080°02'0 1.0
2018-Jun-20 00:58N 26°46' W 080°03'0 0.0
2018-Jun-20 00:28N 26°46' W 080°03'0 0.0
2018-Jun-19 23:55N 26°46' W 080°03'0 0.0
2018-Jun-19 23:28N 26°46' W 080°03'0 0.0
2018-Jun-19 22:55N 26°46' W 080°03'0 0.0
2018-Jun-19 22:28N 26°46' W 080°03'0 0.0
2018-Jun-19 21:55N 26°46' W 080°03'0 0.0
2018-Jun-19 21:22N 26°46' W 080°03'0 0.0
2018-Jun-19 20:58N 26°46' W 080°03'0 0.0
2018-Jun-19 20:28N 26°46' W 080°03'0 0.0
2018-Jun-19 19:58N 26°46' W 080°03'0 0.0
2018-Jun-19 19:25N 26°46' W 080°03'0 0.0
2018-Jun-19 18:58N 26°46' W 080°03'0 0.0
2018-Jun-19 18:22N 26°46' W 080°03'0 0.0
2018-Jun-19 17:58N 26°46' W 080°03'0 0.0
2018-Jun-19 17:28N 26°46' W 080°03'0 0.0
2018-Jun-19 16:58N 26°46' W 080°03'0 0.0
2018-Jun-19 16:28N 26°46' W 080°03'0 0.0
2018-Jun-19 15:58N 26°46' W 080°03'0 0.0
2018-Jun-19 15:28N 26°46' W 080°03'0 0.0
2018-Jun-19 14:58N 26°46' W 080°03'0 0.0
2018-Jun-19 14:25N 26°46' W 080°03'0 0.0
2018-Jun-19 13:55N 26°46' W 080°03'0 0.0
2018-Jun-19 13:28N 26°46' W 080°03'0 0.0
2018-Jun-19 12:55N 26°46' W 080°03'0 0.0
2018-Jun-19 12:22N 26°46' W 080°03'0 0.0
2018-Jun-19 11:58N 26°46' W 080°03'0 0.1
2018-Jun-19 11:30N 26°46' W 080°03'18 7.1
2018-Jun-19 08:57N 26°36' W 079°46'4 8.6
2018-Jun-19 08:30N 26°34' W 079°42'20 0.5
2018-Jun-17 19:30N 26°44' W 080°01'0 0.1
2018-Jun-17 18:25N 26°44' W 080°01'0 0.0
2018-Jun-17 17:51N 26°44' W 080°01'0 0.0
2018-Jun-17 12:40N 26°44' W 080°01'1 5.3
2018-Jun-17 12:29N 26°45' W 080°01'2 0.1
2018-Jun-16 13:18N 26°46' W 080°03'1 1.7
2018-Jun-16 13:00N 26°46' W 080°03'4 7.9
2018-Jun-16 12:31N 26°45' W 079°58'815.4
2018-Jun-16 12:00N 26°41' W 079°51'1114.2
2018-Jun-16 11:13N 26°37' W 079°39'314.8
2018-Jun-16 11:00N 26°35' W 079°36'25 0.7
2018-Jun-14 23:25N 26°46' W 080°01'1 0.1
2018-Jun-14 12:08N 26°46' W 080°03'0 1.5
2018-Jun-14 12:00N 26°46' W 080°03'62 2.0
2018-Jun-13 04:33N 26°23' W 078°59'112.7
2018-Jun-13 04:30N 26°23' W 078°59'6012.0
2018-Jun-12 23:28N 26°46' W 080°02'1 0.1
2018-Jun-12 11:56N 26°46' W 080°03'9 5.7
2018-Jun-12 10:22N 26°41' W 079°55'1511.1
2018-Jun-12 09:01N 26°33' W 079°41'012.5
2018-Jun-12 09:00N 26°33' W 079°40'15112.8
2018-Jun-11 21:10N 25°07' W 077°22'210.5
2018-Jun-11 21:00N 25°05' W 077°21'0 0.4
2018-Jun-11 20:26N 25°05' W 077°21'0 0.0
2018-Jun-11 19:56N 25°05' W 077°21'0 0.0
2018-Jun-11 19:26N 25°05' W 077°21'0 0.0
2018-Jun-11 18:56N 25°05' W 077°21'0 0.0
2018-Jun-11 18:26N 25°05' W 077°21'0 0.0
2018-Jun-11 17:50N 25°05' W 077°21'  
Track history (hours):
 
Tides and Currents Weather Stations Pressure Air Temp Water Temp Dewpoint Dewpoint Depression Visibility Wind Speed Wind Dir Waves Ship Positions

Caribe Legend

Last reported at 2018-Jun-21 13:58 UTC. Time now 2018-Jun-21 14:04 UTC.
Position N 26°46' W 080°03'.

Length 100 m; draft 5.2 m.

Type: Cargo ship. MMSI: 304598000.

Date/timePositionNaut miles runAvg speedWind from/ knotsBaromVisibWave heightAir tempDewpointWater temp
2018-Jun-21 13:58N 26°46' W 080°03'0 0.0
2018-Jun-21 13:28N 26°46' W 080°03'0 0.0
2018-Jun-21 12:58N 26°46' W 080°03'0 0.0
2018-Jun-21 12:28N 26°46' W 080°03'0 0.2
2018-Jun-21 12:00N 26°46' W 080°03'4 7.6
2018-Jun-21 11:30N 26°45' W 079°59'1 0.0
2018-Jun-20 01:44N 26°45' W 080°00'2 9.2
2018-Jun-20 01:28N 26°46' W 080°02'0 1.0
2018-Jun-20 00:58N 26°46' W 080°03'0 0.0
2018-Jun-20 00:28N 26°46' W 080°03'0 0.0
2018-Jun-19 23:55N 26°46' W 080°03'0 0.0
2018-Jun-19 23:28N 26°46' W 080°03'0 0.0
2018-Jun-19 22:55N 26°46' W 080°03'0 0.0
2018-Jun-19 22:28N 26°46' W 080°03'0 0.0
2018-Jun-19 21:55N 26°46' W 080°03'0 0.0
2018-Jun-19 21:22N 26°46' W 080°03'0 0.0
2018-Jun-19 20:58N 26°46' W 080°03'0 0.0
2018-Jun-19 20:28N 26°46' W 080°03'0 0.0
2018-Jun-19 19:58N 26°46' W 080°03'0 0.0
2018-Jun-19 19:25N 26°46' W 080°03'0 0.0
2018-Jun-19 18:58N 26°46' W 080°03'0 0.0
2018-Jun-19 18:22N 26°46' W 080°03'0 0.0
2018-Jun-19 17:58N 26°46' W 080°03'0 0.0
2018-Jun-19 17:28N 26°46' W 080°03'0 0.0
2018-Jun-19 16:58N 26°46' W 080°03'0 0.0
2018-Jun-19 16:28N 26°46' W 080°03'0 0.0
2018-Jun-19 15:58N 26°46' W 080°03'0 0.0
2018-Jun-19 15:28N 26°46' W 080°03'0 0.0
2018-Jun-19 14:58N 26°46' W 080°03'0 0.0
2018-Jun-19 14:25N 26°46' W 080°03'0 0.0
2018-Jun-19 13:55N 26°46' W 080°03'0 0.0
2018-Jun-19 13:28N 26°46' W 080°03'0 0.0
2018-Jun-19 12:55N 26°46' W 080°03'0 0.0
2018-Jun-19 12:22N 26°46' W 080°03'0 0.0
2018-Jun-19 11:58N 26°46' W 080°03'0 0.1
2018-Jun-19 11:30N 26°46' W 080°03'18 7.1
2018-Jun-19 08:57N 26°36' W 079°46'4 8.6
2018-Jun-19 08:30N 26°34' W 079°42'20 0.5
2018-Jun-17 19:30N 26°44' W 080°01'0 0.1
2018-Jun-17 18:25N 26°44' W 080°01'0 0.0
2018-Jun-17 17:51N 26°44' W 080°01'0 0.0
2018-Jun-17 12:40N 26°44' W 080°01'1 5.3
2018-Jun-17 12:29N 26°45' W 080°01'2 0.1
2018-Jun-16 13:18N 26°46' W 080°03'1 1.7
2018-Jun-16 13:00N 26°46' W 080°03'4 7.9
2018-Jun-16 12:31N 26°45' W 079°58'815.4
2018-Jun-16 12:00N 26°41' W 079°51'1114.2
2018-Jun-16 11:13N 26°37' W 079°39'314.8
2018-Jun-16 11:00N 26°35' W 079°36'25 0.7
2018-Jun-14 23:25N 26°46' W 080°01'1 0.1
2018-Jun-14 12:08N 26°46' W 080°03'0 1.5
2018-Jun-14 12:00N 26°46' W 080°03'62 2.0
2018-Jun-13 04:33N 26°23' W 078°59'112.7
2018-Jun-13 04:30N 26°23' W 078°59'6012.0
2018-Jun-12 23:28N 26°46' W 080°02'1 0.1
2018-Jun-12 11:56N 26°46' W 080°03'9 5.7
2018-Jun-12 10:22N 26°41' W 079°55'1511.1
2018-Jun-12 09:01N 26°33' W 079°41'012.5
2018-Jun-12 09:00N 26°33' W 079°40'15112.8
2018-Jun-11 21:10N 25°07' W 077°22'210.5
2018-Jun-11 21:00N 25°05' W 077°21'0 0.4
2018-Jun-11 20:26N 25°05' W 077°21'0 0.0
2018-Jun-11 19:56N 25°05' W 077°21'0 0.0
2018-Jun-11 19:26N 25°05' W 077°21'0 0.0
2018-Jun-11 18:56N 25°05' W 077°21'0 0.0
2018-Jun-11 18:26N 25°05' W 077°21'0 0.0
2018-Jun-11 17:50N 25°05' W 077°21'  

Dump ship's entire track history